createdAt,value
2022-10-15T00:00:43.211Z,19.9
2022-10-15T00:01:43.208Z,19.88
2022-10-15T00:02:43.195Z,19.91
2022-10-15T00:03:43.187Z,19.88
2022-10-15T00:04:43.175Z,19.86
2022-10-15T00:05:43.162Z,19.87
2022-10-15T00:06:43.149Z,19.94
2022-10-15T00:07:43.140Z,19.8
2022-10-15T00:08:43.130Z,19.66
2022-10-15T00:09:43.122Z,19.63
2022-10-15T00:10:43.108Z,19.54
2022-10-15T00:11:43.097Z,19.54
2022-10-15T00:12:43.088Z,19.42
2022-10-15T00:13:43.087Z,19.15
2022-10-15T00:14:43.071Z,18.84
2022-10-15T00:15:43.059Z,18.9
2022-10-15T00:16:43.045Z,18.83
2022-10-15T00:17:43.034Z,18.82
2022-10-15T00:18:43.021Z,18.82
2022-10-15T00:19:43.016Z,18.95
2022-10-15T00:20:43.032Z,19.11
2022-10-15T00:21:42.989Z,19.2
2022-10-15T00:22:42.983Z,19.25
2022-10-15T00:23:42.971Z,19.36
2022-10-15T00:24:42.956Z,19.23
2022-10-15T00:25:42.957Z,19.2
2022-10-15T00:26:42.939Z,19.05
2022-10-15T00:27:42.926Z,18.95
2022-10-15T00:28:42.921Z,19.02
2022-10-15T00:29:42.907Z,18.97
2022-10-15T00:30:42.911Z,19.05
2022-10-15T00:31:42.885Z,18.94
2022-10-15T00:32:42.876Z,18.74
2022-10-15T00:33:42.861Z,18.77
2022-10-15T00:34:42.853Z,18.74
2022-10-15T00:35:42.842Z,18.77
2022-10-15T00:36:42.834Z,18.8
2022-10-15T00:37:42.827Z,18.95
2022-10-15T00:38:42.809Z,18.98
2022-10-15T00:39:42.803Z,18.86
2022-10-15T00:40:42.789Z,18.83
2022-10-15T00:41:42.775Z,18.77
2022-10-15T00:42:42.767Z,18.91
2022-10-15T00:43:42.769Z,18.83
2022-10-15T00:44:42.742Z,18.83
2022-10-15T00:45:42.737Z,18.87
2022-10-15T00:46:42.722Z,18.9
2022-10-15T00:47:42.713Z,18.86
2022-10-15T00:48:42.704Z,18.86
2022-10-15T00:49:42.716Z,18.9
2022-10-15T00:50:42.680Z,18.84
2022-10-15T00:51:42.670Z,18.84
2022-10-15T00:52:42.661Z,18.97
2022-10-15T00:53:42.651Z,18.92
2022-10-15T00:54:42.643Z,18.91
2022-10-15T00:55:42.640Z,18.92
2022-10-15T00:56:42.624Z,18.94
2022-10-15T00:57:42.613Z,18.92
2022-10-15T00:58:42.600Z,19.05
2022-10-15T00:59:42.591Z,19.02
2022-10-15T01:00:42.580Z,18.95
2022-10-15T01:01:42.575Z,18.95
2022-10-15T01:02:42.556Z,19.02
2022-10-15T01:03:42.549Z,18.94
2022-10-15T01:04:42.539Z,18.94
2022-10-15T01:05:42.545Z,18.95
2022-10-15T01:06:42.517Z,18.95
2022-10-15T01:07:42.511Z,18.92
2022-10-15T01:08:42.491Z,18.98
2022-10-15T01:09:42.485Z,18.98
2022-10-15T01:10:42.475Z,18.95
2022-10-15T01:11:42.464Z,18.82
2022-10-15T01:12:42.451Z,18.91
2022-10-15T01:13:42.443Z,18.86
2022-10-15T01:14:42.430Z,18.99
2022-10-15T01:15:42.418Z,18.87
2022-10-15T01:16:42.413Z,18.77
2022-10-15T01:17:42.398Z,18.84
2022-10-15T01:18:42.388Z,18.83
2022-10-15T01:19:42.383Z,18.83
2022-10-15T01:20:42.364Z,18.8
2022-10-15T01:21:42.354Z,18.79
2022-10-15T01:22:42.348Z,18.74
2022-10-15T01:23:42.335Z,18.74
2022-10-15T01:24:42.322Z,18.73
2022-10-15T01:25:42.319Z,18.79
2022-10-15T01:26:42.300Z,18.79
2022-10-15T01:27:42.289Z,18.67
2022-10-15T01:28:42.283Z,18.61
2022-10-15T01:29:42.265Z,18.46
2022-10-15T01:30:42.261Z,18.44
2022-10-15T01:31:42.247Z,18.44
2022-10-15T01:32:42.238Z,18.55
2022-10-15T01:33:42.219Z,18.73
2022-10-15T01:34:42.210Z,18.72
2022-10-15T01:35:42.199Z,18.61
2022-10-15T01:36:42.191Z,18.44
2022-10-15T01:37:42.191Z,18.27
2022-10-15T01:38:42.166Z,18.34
2022-10-15T01:39:42.158Z,18.34
2022-10-15T01:40:42.140Z,18.49
2022-10-15T01:41:42.132Z,18.55
2022-10-15T01:42:42.121Z,18.52
2022-10-15T01:43:42.121Z,18.5
2022-10-15T01:44:42.098Z,18.55
2022-10-15T01:45:42.090Z,18.52
2022-10-15T01:46:42.080Z,18.57
2022-10-15T01:47:42.071Z,18.55
2022-10-15T01:48:42.061Z,18.59
2022-10-15T01:49:42.056Z,18.59
2022-10-15T01:50:42.033Z,18.57
2022-10-15T01:51:42.025Z,18.54
2022-10-15T01:52:42.010Z,18.58
2022-10-15T01:53:42.003Z,18.57
2022-10-15T01:54:41.994Z,18.52
2022-10-15T01:55:41.986Z,18.55
2022-10-15T01:56:41.970Z,18.57
2022-10-15T01:57:41.964Z,18.43
2022-10-15T01:58:41.944Z,18.44
2022-10-15T01:59:41.938Z,18.4
2022-10-15T02:00:41.928Z,18.37
2022-10-15T02:02:41.904Z,18.39
2022-10-15T02:03:41.894Z,18.33
2022-10-15T02:04:41.882Z,18.36
2022-10-15T02:05:41.875Z,18.28
2022-10-15T02:06:41.866Z,18.27
2022-10-15T02:07:41.866Z,18.27
2022-10-15T02:08:41.843Z,18.22
2022-10-15T02:09:41.827Z,18.29
2022-10-15T02:10:41.821Z,18.43
2022-10-15T02:11:41.806Z,18.37
2022-10-15T02:12:41.805Z,18.27
2022-10-15T02:13:41.790Z,18.27
2022-10-15T02:14:41.778Z,18.27
2022-10-15T02:15:41.766Z,18.18
2022-10-15T02:16:41.754Z,18.24
2022-10-15T02:17:41.744Z,18.27
2022-10-15T02:18:41.729Z,18.29
2022-10-15T02:19:41.727Z,18.36
2022-10-15T02:20:41.708Z,18.39
2022-10-15T02:21:41.696Z,18.43
2022-10-15T02:22:41.689Z,18.46
2022-10-15T02:23:41.678Z,18.44
2022-10-15T02:24:41.663Z,18.44
2022-10-15T02:25:41.663Z,18.44
2022-10-15T02:26:41.645Z,18.47
2022-10-15T02:27:41.635Z,18.04
2022-10-15T02:28:41.622Z,17.81
2022-10-15T02:29:41.612Z,17.63
2022-10-15T02:30:41.598Z,17.69
2022-10-15T02:31:41.592Z,17.53
2022-10-15T02:32:41.578Z,17.28
2022-10-15T02:33:41.569Z,17.2
2022-10-15T02:34:41.560Z,17.28
2022-10-15T02:35:41.554Z,17.23
2022-10-15T02:36:41.531Z,17.36
2022-10-15T02:37:41.527Z,17.55
2022-10-15T02:38:41.516Z,17.69
2022-10-15T02:39:41.502Z,17.67
2022-10-15T02:40:41.495Z,17.7
2022-10-15T02:41:41.482Z,17.81
2022-10-15T02:42:41.468Z,17.79
2022-10-15T02:43:41.457Z,18.06
2022-10-15T02:44:41.464Z,18.07
2022-10-15T02:45:41.438Z,18.12
2022-10-15T02:46:41.425Z,18.25
2022-10-15T02:47:41.418Z,18.24
2022-10-15T02:48:41.402Z,18.27
2022-10-15T02:49:41.397Z,18.4
2022-10-15T02:50:41.392Z,18.37
2022-10-15T02:51:41.371Z,18.42
2022-10-15T02:52:41.364Z,18.42
2022-10-15T02:53:41.350Z,18.58
2022-10-15T02:54:41.342Z,18.72
2022-10-15T02:55:41.325Z,18.76
2022-10-15T02:56:41.324Z,18.73
2022-10-15T02:57:41.310Z,18.87
2022-10-15T02:58:41.300Z,18.79
2022-10-15T02:59:41.282Z,18.83
2022-10-15T03:00:41.274Z,18.84
2022-10-15T03:01:41.261Z,18.77
2022-10-15T03:02:41.262Z,18.77
2022-10-15T03:03:41.241Z,18.79
2022-10-15T03:04:41.228Z,18.83
2022-10-15T03:05:41.222Z,18.84
2022-10-15T03:06:41.210Z,18.9
2022-10-15T03:07:41.196Z,18.94
2022-10-15T03:08:41.193Z,18.95
2022-10-15T03:09:41.174Z,18.94
2022-10-15T03:10:41.163Z,18.99
2022-10-15T03:11:41.161Z,19.02
2022-10-15T03:12:41.144Z,18.98
2022-10-15T03:13:41.137Z,19.02
2022-10-15T03:14:41.133Z,19.06
2022-10-15T03:15:41.113Z,19.08
2022-10-15T03:16:41.099Z,19.02
2022-10-15T03:17:41.093Z,19.02
2022-10-15T03:18:41.085Z,19.01
2022-10-15T03:19:41.068Z,19.02
2022-10-15T03:20:41.059Z,18.98
2022-10-15T03:21:41.050Z,18.92
2022-10-15T03:22:41.039Z,18.97
2022-10-15T03:23:41.032Z,18.98
2022-10-15T03:24:41.012Z,19.02
2022-10-15T03:25:41.003Z,18.97
2022-10-15T03:26:40.999Z,18.97
2022-10-15T03:27:40.980Z,18.99
2022-10-15T03:28:40.975Z,18.98
2022-10-15T03:29:40.958Z,19.17
2022-10-15T03:30:40.953Z,19.13
2022-10-15T03:31:40.937Z,19.24
2022-10-15T03:32:40.931Z,19.23
2022-10-15T03:33:40.926Z,19.15
2022-10-15T03:34:40.908Z,19.13
2022-10-15T03:35:40.893Z,19.13
2022-10-15T03:36:40.887Z,19.17
2022-10-15T03:37:40.869Z,19.14
2022-10-15T03:38:40.860Z,19.23
2022-10-15T03:39:40.852Z,19.21
2022-10-15T03:40:40.839Z,19.24
2022-10-15T03:41:40.832Z,19.28
2022-10-15T03:42:40.826Z,19.05
2022-10-15T03:43:40.812Z,18.84
2022-10-15T03:44:40.796Z,18.58
2022-10-15T03:45:40.790Z,18.25
2022-10-15T03:46:40.778Z,18.29
2022-10-15T03:47:40.772Z,18.25
2022-10-15T03:48:40.755Z,18.39
2022-10-15T03:49:40.744Z,18.42
2022-10-15T03:50:40.732Z,18.36
2022-10-15T03:51:40.723Z,18.37
2022-10-15T03:52:40.706Z,18.62
2022-10-15T03:53:40.701Z,18.73
2022-10-15T03:54:40.689Z,18.79
2022-10-15T03:55:40.677Z,18.97
2022-10-15T03:56:40.667Z,18.97
2022-10-15T03:57:40.653Z,18.94
2022-10-15T03:58:40.640Z,18.79
2022-10-15T03:59:40.640Z,18.43
2022-10-15T04:00:40.623Z,18.24
2022-10-15T04:01:40.614Z,18.13
2022-10-15T04:02:40.598Z,17.99
2022-10-15T04:03:40.600Z,18.07
2022-10-15T04:04:40.574Z,18.13
2022-10-15T04:05:40.569Z,18.27
2022-10-15T04:06:40.556Z,18.46
2022-10-15T04:07:40.545Z,18.67
2022-10-15T04:08:40.532Z,18.73
2022-10-15T04:09:40.524Z,18.79
2022-10-15T04:10:40.515Z,18.79
2022-10-15T04:11:40.497Z,18.5
2022-10-15T04:12:40.492Z,18.37
2022-10-15T04:13:40.480Z,18.24
2022-10-15T04:14:40.472Z,18.13
2022-10-15T04:15:40.459Z,17.89
2022-10-15T04:16:40.448Z,17.95
2022-10-15T04:17:40.435Z,18
2022-10-15T04:18:40.429Z,18.02
2022-10-15T04:19:40.413Z,18.15
2022-10-15T04:20:40.407Z,18.25
2022-10-15T04:21:40.392Z,18.06
2022-10-15T04:22:40.380Z,17.84
2022-10-15T04:23:40.371Z,17.64
2022-10-15T04:24:40.362Z,17.69
2022-10-15T04:25:40.349Z,17.67
2022-10-15T04:26:40.341Z,17.76
2022-10-15T04:27:40.328Z,17.95
2022-10-15T04:28:40.324Z,18.18
2022-10-15T04:29:40.304Z,18.33
2022-10-15T04:30:40.296Z,18.4
2022-10-15T04:31:40.290Z,18.36
2022-10-15T04:32:40.274Z,18.25
2022-10-15T04:33:40.266Z,18.24
2022-10-15T04:34:40.271Z,18.18
2022-10-15T04:35:40.239Z,18.17
2022-10-15T04:36:40.231Z,17.91
2022-10-15T04:37:40.223Z,17.78
2022-10-15T04:38:40.212Z,17.78
2022-10-15T04:39:40.209Z,17.95
2022-10-15T04:40:40.195Z,18.03
2022-10-15T04:41:40.182Z,18.18
2022-10-15T04:42:40.173Z,18.25
2022-10-15T04:43:40.153Z,18.31
2022-10-15T04:44:40.147Z,18.39
2022-10-15T04:45:40.133Z,18.43
2022-10-15T04:46:40.131Z,18.36
2022-10-15T04:47:40.116Z,18.24
2022-10-15T04:48:40.103Z,18.24
2022-10-15T04:49:40.087Z,18.34
2022-10-15T04:50:40.095Z,18.4
2022-10-15T04:51:40.074Z,18.33
2022-10-15T04:52:40.067Z,18.13
2022-10-15T04:53:40.051Z,18.39
2022-10-15T04:54:40.037Z,18.43
2022-10-15T04:55:40.025Z,18.36
2022-10-15T04:56:40.019Z,18.19
2022-10-15T04:57:40.005Z,18.13
2022-10-15T04:58:40.006Z,18.17
2022-10-15T04:59:39.979Z,18.29
2022-10-15T05:00:39.970Z,18.4
2022-10-15T05:01:39.960Z,18.57
2022-10-15T05:02:39.952Z,18.68
2022-10-15T05:03:39.934Z,18.73
2022-10-15T05:04:39.937Z,18.8
2022-10-15T05:05:39.916Z,18.82
2022-10-15T05:06:39.907Z,18.7
2022-10-15T05:07:39.893Z,18.72
2022-10-15T05:08:39.883Z,18.76
2022-10-15T05:09:39.871Z,18.86
2022-10-15T05:10:39.866Z,18.97
2022-10-15T05:11:39.848Z,18.92
2022-10-15T05:12:39.837Z,18.98
2022-10-15T05:13:39.826Z,18.98
2022-10-15T05:14:39.814Z,18.91
2022-10-15T05:15:39.809Z,18.94
2022-10-15T05:16:39.803Z,18.95
2022-10-15T05:17:39.790Z,18.92
2022-10-15T05:18:39.775Z,18.84
2022-10-15T05:19:39.765Z,18.8
2022-10-15T05:20:39.762Z,18.94
2022-10-15T05:21:39.740Z,18.97
2022-10-15T05:22:39.731Z,19.02
2022-10-15T05:23:39.723Z,19.05
2022-10-15T05:24:39.705Z,19.05
2022-10-15T05:25:39.697Z,18.74
2022-10-15T05:26:39.688Z,18.44
2022-10-15T05:27:39.681Z,18.27
2022-10-15T05:28:39.672Z,18.09
2022-10-15T05:29:39.654Z,18.19
2022-10-15T05:30:39.651Z,18.25
2022-10-15T05:31:39.794Z,18.28
2022-10-15T05:33:52.790Z,18.62
2022-10-15T05:35:14.826Z,19.38
2022-10-15T05:36:08.664Z,19.87
2022-10-15T05:36:53.741Z,20.12
2022-10-15T05:37:52.615Z,20.39
2022-10-15T05:38:52.755Z,20.56
2022-10-15T05:39:52.663Z,20.79
2022-10-15T05:40:52.615Z,20.86
2022-10-15T05:41:52.622Z,20.81
2022-10-15T05:43:52.750Z,20.42
2022-10-15T05:44:52.596Z,19.98
2022-10-15T05:45:52.652Z,19.88
2022-10-15T05:46:53.548Z,19.88
2022-10-15T05:47:52.615Z,20.06
2022-10-15T05:48:52.589Z,20.23
2022-10-15T05:49:52.587Z,20.31
2022-10-15T05:50:52.559Z,20.21
2022-10-15T05:51:52.528Z,20.15
2022-10-15T05:52:52.694Z,19.98
2022-10-15T05:53:52.456Z,20.16
2022-10-15T05:54:52.529Z,20.21
2022-10-15T05:55:53.502Z,20.51
2022-10-15T05:56:52.488Z,20.5
2022-10-15T05:57:53.506Z,20.53
2022-10-15T05:58:52.529Z,20.62
2022-10-15T05:59:52.453Z,20.42
2022-10-15T06:00:52.560Z,20.24
2022-10-15T06:01:52.525Z,20.15
2022-10-15T06:03:53.344Z,19.8
2022-10-15T06:04:53.467Z,19.69
2022-10-15T06:05:52.375Z,19.66
2022-10-15T06:06:52.371Z,19.6
2022-10-15T06:07:52.441Z,19.46
2022-10-15T06:08:53.319Z,19.43
2022-10-15T06:09:52.322Z,19.46
2022-10-15T06:10:52.284Z,19.31
2022-10-15T06:11:52.308Z,19.24
2022-10-15T06:12:52.309Z,18.86
2022-10-15T06:13:53.224Z,18.87
2022-10-15T06:14:52.344Z,18.82
2022-10-15T06:15:52.380Z,18.91
2022-10-15T06:16:52.216Z,18.92
2022-10-15T06:17:52.201Z,18.94
2022-10-15T06:18:52.332Z,18.94
2022-10-15T06:19:52.186Z,18.83
2022-10-15T06:20:52.178Z,18.9
2022-10-15T06:21:52.294Z,18.95
2022-10-15T06:22:52.246Z,18.68
2022-10-15T06:23:52.143Z,18.62
2022-10-15T06:24:52.129Z,18.52
2022-10-15T06:25:52.099Z,18.42
2022-10-15T06:26:52.093Z,18.29
2022-10-15T06:27:52.076Z,18.19
2022-10-15T06:28:52.067Z,18.22
2022-10-15T06:29:52.056Z,18.25
2022-10-15T06:30:52.061Z,18.1
2022-10-15T06:31:52.035Z,18.22
2022-10-15T06:32:52.059Z,18.22
2022-10-15T06:33:52.016Z,18.22
2022-10-15T06:34:51.996Z,18.22
2022-10-15T06:35:51.991Z,18.12
2022-10-15T06:36:52.011Z,18.42
2022-10-15T06:37:52.011Z,18.27
2022-10-15T06:38:54.608Z,18.29
2022-10-15T06:39:51.954Z,18.4
2022-10-15T06:40:51.945Z,18.61
2022-10-15T06:41:51.936Z,18.7
2022-10-15T06:42:51.999Z,18.68
2022-10-15T06:44:53.005Z,18.74
2022-10-15T06:45:52.959Z,18.83
2022-10-15T06:46:52.036Z,19.06
2022-10-15T06:47:51.946Z,19.23
2022-10-15T06:48:51.883Z,19.29
2022-10-15T06:49:51.885Z,19.38
2022-10-15T06:50:52.875Z,19.39
2022-10-15T06:51:51.856Z,19.39
2022-10-15T06:52:52.068Z,19.51
2022-10-15T06:53:52.110Z,19.5
2022-10-15T06:54:51.790Z,19.54
2022-10-15T06:55:51.814Z,19.68
2022-10-15T06:56:51.908Z,19.55
2022-10-15T06:57:51.790Z,19.43
2022-10-15T06:58:51.892Z,19.55
2022-10-15T06:59:51.792Z,19.54
2022-10-15T07:00:51.811Z,19.51
2022-10-15T07:01:52.749Z,19.46
2022-10-15T07:02:51.832Z,19.51
2022-10-15T07:03:51.841Z,19.36
2022-10-15T07:04:51.801Z,19.32
2022-10-15T07:05:51.850Z,19.32
2022-10-15T07:06:51.677Z,19.36
2022-10-15T07:07:51.680Z,19.32
2022-10-15T07:08:51.659Z,19.43
2022-10-15T07:09:51.652Z,19.32
2022-10-15T07:10:51.703Z,19.38
2022-10-15T07:11:51.610Z,19.5
2022-10-15T07:12:51.618Z,19.55
2022-10-15T07:13:51.615Z,19.43
2022-10-15T07:14:51.674Z,19.48
2022-10-15T07:15:51.640Z,19.53
2022-10-15T07:16:51.571Z,19.57
2022-10-15T07:17:51.754Z,19.57
2022-10-15T07:18:52.684Z,19.53
2022-10-15T07:19:51.763Z,19.54
2022-10-15T07:20:51.575Z,19.54
2022-10-15T07:21:51.766Z,19.43
2022-10-15T07:22:51.612Z,19.17
2022-10-15T07:23:51.495Z,18.86
2022-10-15T07:24:51.497Z,18.61
2022-10-15T07:25:51.571Z,18.61
2022-10-15T07:26:52.560Z,18.59
2022-10-15T07:27:52.481Z,18.49
2022-10-15T07:28:51.446Z,18.55
2022-10-15T07:29:51.439Z,18.7
2022-10-15T07:30:51.520Z,18.91
2022-10-15T07:31:51.453Z,18.92
2022-10-15T07:32:51.523Z,18.83
2022-10-15T07:33:51.441Z,18.97
2022-10-15T07:34:51.457Z,18.9
2022-10-15T07:35:51.476Z,18.9
2022-10-15T07:36:51.433Z,18.79
2022-10-15T07:37:51.393Z,18.77
2022-10-15T07:38:51.350Z,18.73
2022-10-15T07:39:51.395Z,18.82
2022-10-15T07:40:51.314Z,19.15
2022-10-15T07:41:51.332Z,19.21
2022-10-15T07:42:51.309Z,19.42
2022-10-15T07:43:51.312Z,19.43
2022-10-15T07:44:51.368Z,19.63
2022-10-15T07:45:52.266Z,19.65
2022-10-15T07:46:51.280Z,19.78
2022-10-15T07:47:51.255Z,19.76
2022-10-15T07:48:51.257Z,19.76
2022-10-15T07:49:51.210Z,19.54
2022-10-15T07:50:51.307Z,19.36
2022-10-15T07:51:51.288Z,19.31
2022-10-15T07:52:51.229Z,19.43
2022-10-15T07:53:52.218Z,19.51
2022-10-15T07:54:51.180Z,19.53
2022-10-15T07:55:51.166Z,19.53
2022-10-15T07:56:51.194Z,19.57
2022-10-15T07:57:51.169Z,19.68
2022-10-15T07:58:51.112Z,19.75
2022-10-15T07:59:51.283Z,19.76
2022-10-15T08:00:52.121Z,19.55
2022-10-15T08:01:51.183Z,19.65
2022-10-15T08:02:51.073Z,19.69
2022-10-15T08:03:51.095Z,19.84
2022-10-15T08:04:51.067Z,19.93
2022-10-15T08:05:51.048Z,19.73
2022-10-15T08:06:51.072Z,19.72
2022-10-15T08:07:51.098Z,19.75
2022-10-15T08:08:51.012Z,19.38
2022-10-15T08:09:51.030Z,19.24
2022-10-15T08:10:51.006Z,19.5
2022-10-15T08:11:50.986Z,19.91
2022-10-15T08:12:50.961Z,20.12
2022-10-15T08:13:51.016Z,20.12
2022-10-15T08:14:50.975Z,19.88
2022-10-15T08:15:51.017Z,19.72
2022-10-15T08:16:50.947Z,19.83
2022-10-15T08:17:51.035Z,19.83
2022-10-15T08:19:50.916Z,19.48
2022-10-15T08:20:50.919Z,19.25
2022-10-15T08:21:50.887Z,19.01
2022-10-15T08:22:50.867Z,19.01
2022-10-15T08:23:50.862Z,19.33
2022-10-15T08:24:50.882Z,19.5
2022-10-15T08:25:50.830Z,19.76
2022-10-15T08:26:50.856Z,20.02
2022-10-15T08:27:50.802Z,20.03
2022-10-15T08:28:50.820Z,19.95
2022-10-15T08:29:50.847Z,19.98
2022-10-15T08:30:50.902Z,19.91
2022-10-15T08:31:50.790Z,20.02
2022-10-15T08:32:50.763Z,19.68
2022-10-15T08:33:50.742Z,19.66
2022-10-15T08:34:50.749Z,19.5
2022-10-15T08:35:50.811Z,19.73
2022-10-15T08:36:50.758Z,20.09
2022-10-15T08:37:50.764Z,20.13
2022-10-15T08:38:50.808Z,20.09
2022-10-15T08:39:50.838Z,20.09
2022-10-15T08:40:50.692Z,19.76
2022-10-15T08:41:50.777Z,19.91
2022-10-15T08:42:50.748Z,19.76
2022-10-15T08:43:50.728Z,19.9
2022-10-15T08:44:50.681Z,19.98
2022-10-15T08:45:51.635Z,20.12
2022-10-15T08:46:50.672Z,20.43
2022-10-15T08:47:50.685Z,20.39
2022-10-15T08:48:51.584Z,20.53
2022-10-15T08:49:50.597Z,20.27
2022-10-15T08:50:50.561Z,20.38
2022-10-15T08:51:50.544Z,20.54
2022-10-15T08:52:50.534Z,20.69
2022-10-15T08:53:50.552Z,20.47
2022-10-15T08:54:50.508Z,20.43
2022-10-15T08:55:50.542Z,20.5
2022-10-15T08:56:50.506Z,20.34
2022-10-15T08:57:50.600Z,20.66
2022-10-15T08:58:50.461Z,20.79
2022-10-15T08:59:50.454Z,20.41
2022-10-15T09:00:50.451Z,20.3
2022-10-15T09:01:50.450Z,20.28
2022-10-15T09:02:50.437Z,20.51
2022-10-15T09:03:50.446Z,20.77
2022-10-15T09:04:50.415Z,20.59
2022-10-15T09:05:50.388Z,20.34
2022-10-15T09:06:50.409Z,20.68
2022-10-15T09:07:50.381Z,20.77
2022-10-15T09:08:50.360Z,20.83
2022-10-15T09:09:50.348Z,20.98
2022-10-15T09:10:50.341Z,21.09
2022-10-15T09:11:50.346Z,21.21
2022-10-15T09:12:50.318Z,21.51
2022-10-15T09:13:50.303Z,21.5
2022-10-15T09:14:50.300Z,21.69
2022-10-15T09:15:50.283Z,21.76
2022-10-15T09:16:50.268Z,21.97
2022-10-15T09:17:50.258Z,22.04
2022-10-15T09:18:50.250Z,22.16
2022-10-15T09:19:50.238Z,22.19
2022-10-15T09:20:50.232Z,21.95
2022-10-15T09:21:50.215Z,22.01
2022-10-15T09:23:50.210Z,22.04
2022-10-15T09:24:50.186Z,22.19
2022-10-15T09:25:50.173Z,22.09
2022-10-15T09:26:50.181Z,22.25
2022-10-15T09:27:50.161Z,22.2
2022-10-15T09:28:50.158Z,21.91
2022-10-15T09:29:50.130Z,21.66
2022-10-15T09:30:50.126Z,21.48
2022-10-15T09:31:50.115Z,21.69
2022-10-15T09:32:50.123Z,21.92
2022-10-15T09:33:50.090Z,21.94
2022-10-15T09:34:50.092Z,21.5
2022-10-15T09:35:50.076Z,21.76
2022-10-15T09:36:50.091Z,21.85
2022-10-15T09:37:50.048Z,21.63
2022-10-15T09:38:50.040Z,21.46
2022-10-15T09:39:50.049Z,20.95
2022-10-15T09:40:50.022Z,20.77
2022-10-15T09:41:50.004Z,20.77
2022-10-15T09:42:49.998Z,21.11
2022-10-15T09:43:50.021Z,21.36
2022-10-15T09:44:49.969Z,21.19
2022-10-15T09:45:49.979Z,21.39
2022-10-15T09:46:49.950Z,21.06
2022-10-15T09:47:49.962Z,21.01
2022-10-15T09:48:49.938Z,21.14
2022-10-15T09:49:49.915Z,21.21
2022-10-15T09:50:49.905Z,21.51
2022-10-15T09:51:49.919Z,21.72
2022-10-15T09:52:49.892Z,21.39
2022-10-15T09:53:49.880Z,21.51
2022-10-15T09:54:49.888Z,22.04
2022-10-15T09:55:49.852Z,22.04
2022-10-15T09:56:49.844Z,21.95
2022-10-15T09:57:49.828Z,22.25
2022-10-15T09:58:49.825Z,22.2
2022-10-15T09:59:49.847Z,21.66
2022-10-15T10:00:49.806Z,21.63
2022-10-15T10:01:49.784Z,21.63
2022-10-15T10:02:49.836Z,21.34
2022-10-15T10:03:49.771Z,21.41
2022-10-15T10:04:49.760Z,21.66
2022-10-15T10:05:49.751Z,21.51
2022-10-15T10:06:49.735Z,21.36
2022-10-15T10:07:49.729Z,21.51
2022-10-15T10:08:49.747Z,21.45
2022-10-15T10:09:49.701Z,21.71
2022-10-15T10:10:49.695Z,22.04
2022-10-15T10:11:49.676Z,22.13
2022-10-15T10:12:49.684Z,21.91
2022-10-15T10:13:49.659Z,21.85
2022-10-15T10:14:49.669Z,22.25
2022-10-15T10:15:49.637Z,22.2
2022-10-15T10:16:49.623Z,22.32
2022-10-15T10:18:49.635Z,22.89
2022-10-15T10:19:49.592Z,23.17
2022-10-15T10:20:49.584Z,23.39
2022-10-15T10:21:49.574Z,22.97
2022-10-15T10:22:49.560Z,22.43
2022-10-15T10:23:49.554Z,22.68
2022-10-15T10:24:49.537Z,22.37
2022-10-15T10:25:49.536Z,22.19
2022-10-15T10:26:49.553Z,22.19
2022-10-15T10:27:49.503Z,22.56
2022-10-15T10:28:49.496Z,22.86
2022-10-15T10:29:49.523Z,22.67
2022-10-15T10:30:49.479Z,22.64
2022-10-15T10:31:49.467Z,22.97
2022-10-15T10:32:49.467Z,23.19
2022-10-15T10:33:49.446Z,23.07
2022-10-15T10:34:49.429Z,22.69
2022-10-15T10:35:49.416Z,22.32
2022-10-15T10:36:49.409Z,22.39
2022-10-15T10:37:49.427Z,22.37
2022-10-15T10:38:49.394Z,22.35
2022-10-15T10:39:49.389Z,22.04
2022-10-15T10:40:49.387Z,21.85
2022-10-15T10:41:49.354Z,21.72
2022-10-15T10:42:49.345Z,21.69
2022-10-15T10:43:49.384Z,21.76
2022-10-15T10:44:49.315Z,22.22
2022-10-15T10:45:49.310Z,22.54
2022-10-15T10:46:49.304Z,21.97
2022-10-15T10:47:49.288Z,21.97
2022-10-15T10:48:49.277Z,21.69
2022-10-15T10:49:49.282Z,21.57
2022-10-15T10:50:49.261Z,21.69
2022-10-15T10:51:49.245Z,21.63
2022-10-15T10:52:49.252Z,21.34
2022-10-15T10:53:49.222Z,21.53
2022-10-15T10:54:49.219Z,21.5
2022-10-15T10:55:49.203Z,21.54
2022-10-15T10:56:49.201Z,21.72
2022-10-15T10:57:49.178Z,21.76
2022-10-15T10:58:49.173Z,21.85
2022-10-15T10:59:49.160Z,22.01
2022-10-15T11:00:49.151Z,22.04
2022-10-15T11:01:49.274Z,22.27
2022-10-15T11:02:49.133Z,22.22
2022-10-15T11:03:49.133Z,22.1
2022-10-15T11:04:49.109Z,21.95
2022-10-15T11:05:49.096Z,22.17
2022-10-15T11:06:49.084Z,22.35
2022-10-15T11:07:49.070Z,22.53
2022-10-15T11:08:49.066Z,22.17
2022-10-15T11:09:49.050Z,21.95
2022-10-15T11:10:49.039Z,21.56
2022-10-15T11:11:49.037Z,21.53
2022-10-15T11:12:49.025Z,21.63
2022-10-15T11:13:49.021Z,21.92
2022-10-15T11:14:48.997Z,21.9
2022-10-15T11:15:48.995Z,21.71
2022-10-15T11:16:48.974Z,21.71
2022-10-15T11:17:48.964Z,21.92
2022-10-15T11:18:48.966Z,21.82
2022-10-15T11:19:48.940Z,21.79
2022-10-15T11:20:48.932Z,21.76
2022-10-15T11:21:48.936Z,21.88
2022-10-15T11:22:48.908Z,22.02
2022-10-15T11:23:48.899Z,22.2
2022-10-15T11:24:48.886Z,22.07
2022-10-15T11:25:48.888Z,21.97
2022-10-15T11:26:48.895Z,21.61
2022-10-15T11:27:48.858Z,21.57
2022-10-15T11:28:48.848Z,21.75
2022-10-15T11:29:48.842Z,21.9
2022-10-15T11:30:48.822Z,22.12
2022-10-15T11:31:48.854Z,22.27
2022-10-15T11:32:48.800Z,22.16
2022-10-15T11:33:48.817Z,22.02
2022-10-15T11:34:48.781Z,21.91
2022-10-15T11:35:48.771Z,22.23
2022-10-15T11:36:48.760Z,22.54
2022-10-15T11:37:48.792Z,23.26
2022-10-15T11:38:48.792Z,25.16
2022-10-15T11:39:48.728Z,26.2
2022-10-15T11:40:48.720Z,26.92
2022-10-15T11:41:48.707Z,27.06
2022-10-15T11:42:48.729Z,27.53
2022-10-15T11:43:48.713Z,26.77
2022-10-15T11:44:48.672Z,27.67
2022-10-15T11:45:48.662Z,28.43
2022-10-15T11:46:48.659Z,28.9
2022-10-15T11:47:48.641Z,28.29
2022-10-15T11:48:48.637Z,27.84
2022-10-15T11:49:48.630Z,-40
2022-10-15T11:50:48.608Z,-40
2022-10-15T11:51:48.611Z,-40
2022-10-15T11:52:48.693Z,-40
2022-10-15T11:53:48.582Z,-40
2022-10-15T11:54:48.571Z,-40
2022-10-15T11:55:48.558Z,-40
2022-10-15T11:56:48.566Z,-40
2022-10-15T11:57:48.538Z,-40
2022-10-15T11:58:48.541Z,-40
2022-10-15T11:59:48.524Z,-40
2022-10-15T12:00:48.538Z,-40
2022-10-15T12:01:48.541Z,-40
2022-10-15T12:02:48.489Z,-40
2022-10-15T12:03:48.482Z,-40
2022-10-15T12:04:48.544Z,-40
2022-10-15T12:05:48.487Z,-40
2022-10-15T12:06:48.447Z,-40
2022-10-15T12:07:48.437Z,-40
2022-10-15T12:08:48.424Z,-40
2022-10-15T12:09:48.421Z,-40
2022-10-15T12:10:48.421Z,-40
2022-10-15T12:11:48.438Z,-40
2022-10-15T12:12:48.409Z,-40
2022-10-15T12:13:48.388Z,-40
2022-10-15T12:14:48.361Z,-40
2022-10-15T12:15:48.350Z,-40
2022-10-15T12:16:48.346Z,-40
2022-10-15T12:17:48.345Z,-40
2022-10-15T12:18:48.357Z,-40
2022-10-15T12:19:48.312Z,-40
2022-10-15T12:20:48.313Z,-40
2022-10-15T12:21:48.295Z,-40
2022-10-15T12:22:48.282Z,-40
2022-10-15T12:23:48.272Z,-40
2022-10-15T12:24:48.262Z,-40
2022-10-15T12:25:48.267Z,-40
2022-10-15T12:26:48.244Z,-40
2022-10-15T12:27:48.227Z,-40
2022-10-15T12:28:48.224Z,-40
2022-10-15T12:29:48.207Z,-40
2022-10-15T12:30:48.201Z,-40
2022-10-15T12:31:48.192Z,-40
2022-10-15T12:32:48.273Z,-40
2022-10-15T12:33:48.168Z,-40
2022-10-15T12:34:48.156Z,-40
2022-10-15T12:35:48.145Z,-40
2022-10-15T12:36:48.134Z,-40
2022-10-15T12:37:48.145Z,-40
2022-10-15T12:38:48.119Z,-40
2022-10-15T12:39:48.106Z,-40
2022-10-15T12:40:48.090Z,-40
2022-10-15T12:41:48.116Z,-40
2022-10-15T12:42:48.068Z,-40
2022-10-15T12:43:48.196Z,-40
2022-10-15T12:44:48.050Z,-40
2022-10-15T12:45:48.045Z,-40
2022-10-15T12:46:48.028Z,-40
2022-10-15T12:47:48.014Z,-40
2022-10-15T12:48:48.005Z,-40
2022-10-15T12:49:47.997Z,-40
2022-10-15T12:50:48.029Z,-40
2022-10-15T12:51:47.974Z,-40
2022-10-15T12:52:47.970Z,-40
2022-10-15T12:53:47.962Z,-40
2022-10-15T12:54:47.938Z,-40
2022-10-15T12:56:48.918Z,-40
2022-10-15T12:57:47.936Z,-40
2022-10-15T12:58:47.898Z,-40
2022-10-15T12:59:47.886Z,-40
2022-10-15T13:00:47.879Z,-40
2022-10-15T13:01:47.898Z,-40
2022-10-15T13:02:47.853Z,-40
2022-10-15T13:03:47.847Z,-40
2022-10-15T13:04:47.831Z,-40
2022-10-15T13:05:47.818Z,-40
2022-10-15T13:06:47.828Z,-40
2022-10-15T13:07:47.796Z,-40
2022-10-15T13:08:47.790Z,-40